createdAt,value
2023-02-22T00:05:02.370Z,83.23
2023-02-22T00:10:09.483Z,82.86
2023-02-22T00:15:14.596Z,83.50
2023-02-22T00:20:20.871Z,83.11
2023-02-22T00:25:25.196Z,83.38
2023-02-22T00:30:30.416Z,83.58
2023-02-22T00:35:33.152Z,84.06
2023-02-22T00:40:36.083Z,83.64
2023-02-22T00:45:38.788Z,83.80
2023-02-22T00:50:41.639Z,83.55
2023-02-22T00:55:44.351Z,83.45
2023-02-22T01:00:47.556Z,84.03
2023-02-22T01:05:50.462Z,84.23
2023-02-22T01:10:53.327Z,83.71
2023-02-22T01:15:57.136Z,83.84
2023-02-22T01:21:02.087Z,84.43
2023-02-22T01:26:06.307Z,84.08
2023-02-22T01:31:09.758Z,83.86
2023-02-22T01:36:12.655Z,83.97
2023-02-22T01:41:18.744Z,84.28
2023-02-22T01:46:27.025Z,83.84
2023-02-22T01:51:38.164Z,84.14
2023-02-22T01:56:46.732Z,83.90
2023-02-22T02:01:49.637Z,83.73
2023-02-22T02:06:54.145Z,84.17
2023-02-22T02:12:01.124Z,84.03
2023-02-22T02:17:07.290Z,83.69
2023-02-22T02:22:31.015Z,83.30
2023-02-22T02:28:03.334Z,83.45
2023-02-22T02:33:27.060Z,83.82
2023-02-22T02:38:47.834Z,83.21
2023-02-22T02:44:02.519Z,82.85
2023-02-22T02:49:25.825Z,82.42
2023-02-22T02:54:28.612Z,82.78
2023-02-22T02:59:39.614Z,82.49
2023-02-22T03:05:02.646Z,81.99
2023-02-22T03:10:44.463Z,81.10
2023-02-22T03:16:12.158Z,81.13
2023-02-22T03:21:42.021Z,81.27
2023-02-22T03:26:59.844Z,80.77
2023-02-22T03:32:04.772Z,80.91
2023-02-22T03:37:20.376Z,80.88
2023-02-22T03:42:36.205Z,80.30
2023-02-22T03:47:44.727Z,79.35
2023-02-22T03:52:48.275Z,79.27
2023-02-22T03:58:00.317Z,78.91
2023-02-22T04:03:05.970Z,78.48
2023-02-22T04:08:08.786Z,78.45
2023-02-22T04:13:14.931Z,77.89
2023-02-22T04:18:21.968Z,77.47
2023-02-22T04:23:27.322Z,77.32
2023-02-22T04:28:36.454Z,76.56
2023-02-22T04:33:59.542Z,76.23
2023-02-22T04:39:06.239Z,76.43
2023-02-22T04:44:09.225Z,75.88
2023-02-22T04:49:11.994Z,75.28
2023-02-22T04:54:17.954Z,75.17
2023-02-22T04:59:23.013Z,74.12
2023-02-22T05:04:31.515Z,73.16
2023-02-22T05:09:34.501Z,72.82
2023-02-22T05:14:37.450Z,73.17
2023-02-22T05:19:40.205Z,73.27
2023-02-22T05:24:44.256Z,72.41
2023-02-22T05:29:50.023Z,72.55
2023-02-22T05:34:52.762Z,71.74
2023-02-22T05:39:56.081Z,71.29
2023-02-22T05:45:03.256Z,70.96
2023-02-22T05:50:07.156Z,69.94
2023-02-22T05:55:10.947Z,69.40
2023-02-22T06:00:29.711Z,68.21
2023-02-22T06:05:32.995Z,68.67
2023-02-22T06:10:36.818Z,69.19
2023-02-22T06:15:54.950Z,68.60
2023-02-22T06:20:58.702Z,68.18
2023-02-22T06:26:01.514Z,68.52
2023-02-22T06:31:07.192Z,68.57
2023-02-22T06:36:10.403Z,68.09
2023-02-22T06:41:13.301Z,68.00
2023-02-22T06:46:16.060Z,67.80
2023-02-22T06:51:18.993Z,67.56
2023-02-22T06:56:22.206Z,68.02
2023-02-22T07:01:24.890Z,67.28
2023-02-22T07:06:27.545Z,67.79
2023-02-22T07:11:30.394Z,67.36
2023-02-22T07:16:34.152Z,67.55
2023-02-22T07:21:36.856Z,67.83
2023-02-22T07:26:43.138Z,67.47
2023-02-22T07:31:47.341Z,68.01
2023-02-22T07:36:50.043Z,67.42
2023-02-22T07:41:52.707Z,66.90
2023-02-22T07:46:59.590Z,66.98
2023-02-22T07:52:02.289Z,66.85
2023-02-22T07:57:05.248Z,66.85
2023-02-22T08:02:16.494Z,66.68
2023-02-22T08:07:19.096Z,66.69
2023-02-22T08:12:21.708Z,67.38
2023-02-22T08:17:24.451Z,67.53
2023-02-22T08:22:30.025Z,67.44
2023-02-22T08:27:34.287Z,67.59
2023-02-22T08:32:37.068Z,67.36
2023-02-22T08:37:52.866Z,67.62
2023-02-22T08:42:55.506Z,68.27
2023-02-22T08:47:59.026Z,67.54
2023-02-22T08:53:04.556Z,67.36
2023-02-22T08:58:10.850Z,67.90
2023-02-22T09:03:15.218Z,68.33
2023-02-22T09:08:18.359Z,67.77
2023-02-22T09:13:21.066Z,67.90
2023-02-22T09:18:25.527Z,68.41
2023-02-22T09:23:28.365Z,68.37
2023-02-22T09:28:32.457Z,69.29
2023-02-22T09:33:35.130Z,68.96
2023-02-22T09:38:37.872Z,69.13
2023-02-22T09:44:15.813Z,69.81
2023-02-22T09:49:59.958Z,69.25
2023-02-22T09:55:26.720Z,69.92
2023-02-22T10:00:34.341Z,69.97
2023-02-22T10:05:42.132Z,70.05
2023-02-22T10:10:52.895Z,70.60
2023-02-22T10:16:01.614Z,70.18
2023-02-22T10:21:11.175Z,69.94
2023-02-22T10:26:32.321Z,70.37
2023-02-22T10:31:41.142Z,70.65
2023-02-22T10:36:48.969Z,71.68
2023-02-22T10:41:54.692Z,71.38
2023-02-22T10:47:00.003Z,72.26
2023-02-22T10:52:03.986Z,71.47
2023-02-22T10:57:06.896Z,72.10
2023-02-22T11:02:15.752Z,72.56
2023-02-22T11:07:38.667Z,72.94
2023-02-22T11:12:45.209Z,73.66
2023-02-22T11:17:49.706Z,73.83
2023-02-22T11:22:58.720Z,73.71
2023-02-22T11:28:15.834Z,74.17
2023-02-22T11:33:24.153Z,74.75
2023-02-22T11:38:29.988Z,74.59
2023-02-22T11:43:32.917Z,75.38
2023-02-22T11:48:39.550Z,75.79
2023-02-22T11:53:45.459Z,76.10
2023-02-22T11:58:54.517Z,76.45
2023-02-22T12:04:16.233Z,76.44
2023-02-22T12:09:34.352Z,77.43
2023-02-22T12:15:03.129Z,77.15
2023-02-22T12:20:28.053Z,77.48
2023-02-22T12:25:39.186Z,77.67
2023-02-22T12:30:45.131Z,78.34
2023-02-22T12:35:58.987Z,77.97
2023-02-22T12:41:14.333Z,78.57
2023-02-22T12:46:31.367Z,78.80
2023-02-22T12:51:52.220Z,79.27
2023-02-22T12:57:04.719Z,79.45
2023-02-22T13:02:13.630Z,78.81
2023-02-22T13:07:46.483Z,79.08
2023-02-22T13:12:58.116Z,79.05
2023-02-22T13:18:26.063Z,79.36
2023-02-22T13:23:41.343Z,79.92
2023-02-22T13:28:58.599Z,79.65
2023-02-22T13:34:13.518Z,79.80
2023-02-22T13:39:29.975Z,80.61
2023-02-22T13:44:38.468Z,80.47
2023-02-22T13:50:00.309Z,80.24
2023-02-22T13:55:11.382Z,80.92
2023-02-22T14:00:15.442Z,81.22
2023-02-22T14:05:51.695Z,81.52
2023-02-22T14:10:56.331Z,82.11
2023-02-22T14:16:05.159Z,82.42
2023-02-22T14:21:13.088Z,82.92
2023-02-22T14:26:35.443Z,83.44
2023-02-22T14:32:02.544Z,83.41
2023-02-22T14:37:27.729Z,83.62
2023-02-22T14:42:35.638Z,84.07
2023-02-22T14:48:01.456Z,83.85
2023-02-22T14:53:24.390Z,83.96
2023-02-22T14:58:32.519Z,84.28
2023-02-22T15:03:38.330Z,84.12
2023-02-22T15:08:42.613Z,84.23
2023-02-22T15:13:54.452Z,84.08
2023-02-22T15:19:01.182Z,84.55
2023-02-22T15:24:06.935Z,84.92
2023-02-22T15:29:16.502Z,84.56
2023-02-22T15:34:24.844Z,85.28
2023-02-22T15:39:30.271Z,86.24
2023-02-22T15:44:41.230Z,86.35
2023-02-22T15:49:44.493Z,86.10
2023-02-22T15:54:50.889Z,86.49
2023-02-22T15:59:56.683Z,85.53
2023-02-22T16:05:08.983Z,86.54
2023-02-22T16:10:31.085Z,86.76
2023-02-22T16:15:34.217Z,86.67
2023-02-22T16:20:37.290Z,87.24
2023-02-22T16:25:40.200Z,86.74
2023-02-22T16:30:43.555Z,87.78
2023-02-22T16:35:52.489Z,87.60
2023-02-22T16:40:56.699Z,87.51
2023-02-22T16:46:02.007Z,87.99
2023-02-22T16:51:19.067Z,88.38
2023-02-22T16:56:30.840Z,88.26
2023-02-22T17:01:35.259Z,88.42
2023-02-22T17:06:38.232Z,88.88
2023-02-22T17:11:41.036Z,89.02
2023-02-22T17:16:43.850Z,88.88
2023-02-22T17:21:46.626Z,89.54
2023-02-22T17:26:50.311Z,89.33
2023-02-22T17:31:53.244Z,89.44
2023-02-22T17:36:55.945Z,89.71
2023-02-22T17:41:59.285Z,89.91
2023-02-22T17:47:02.040Z,90.53
2023-02-22T17:52:06.643Z,90.29
2023-02-22T17:57:09.313Z,90.82
2023-02-22T18:02:11.971Z,90.32
2023-02-22T18:07:16.769Z,90.29
2023-02-22T18:12:19.351Z,90.20
2023-02-22T18:17:23.139Z,90.83
2023-02-22T18:22:25.964Z,90.86
2023-02-22T18:27:30.486Z,91.35
2023-02-22T18:32:33.847Z,90.93
2023-02-22T18:37:36.630Z,91.65
2023-02-22T18:42:40.166Z,91.17
2023-02-22T18:47:44.066Z,90.79
2023-02-22T18:52:47.253Z,91.99
2023-02-22T18:57:53.238Z,91.47
2023-02-22T19:02:58.077Z,91.67
2023-02-22T19:08:01.285Z,91.75
2023-02-22T19:13:04.216Z,91.47
2023-02-22T19:18:07.461Z,91.27
2023-02-22T19:23:11.104Z,91.81
2023-02-22T19:28:16.401Z,91.93
2023-02-22T19:33:19.068Z,91.75
2023-02-22T19:38:21.852Z,91.81
2023-02-22T19:43:24.561Z,92.52
2023-02-22T19:48:27.243Z,92.38
2023-02-22T19:53:30.638Z,92.41
2023-02-22T19:58:37.048Z,91.98
2023-02-22T20:03:40.091Z,92.51
2023-02-22T20:08:42.859Z,92.11
2023-02-22T20:13:46.039Z,92.10
2023-02-22T20:18:49.319Z,92.03
2023-02-22T20:23:57.255Z,92.25
2023-02-22T20:29:00.744Z,92.40
2023-02-22T20:34:06.483Z,92.07
2023-02-22T20:39:13.680Z,92.58
2023-02-22T20:44:18.329Z,92.06
2023-02-22T20:49:21.728Z,91.84
2023-02-22T20:54:24.420Z,91.66
2023-02-22T20:59:29.377Z,91.87
2023-02-22T21:04:33.516Z,92.16
2023-02-22T21:09:37.532Z,91.73
2023-02-22T21:14:41.922Z,91.94
2023-02-22T21:19:44.812Z,91.88
2023-02-22T21:24:49.369Z,91.37
2023-02-22T21:29:52.882Z,91.54
2023-02-22T21:34:55.601Z,91.22
2023-02-22T21:39:59.419Z,91.33
2023-02-22T21:45:02.093Z,91.23
2023-02-22T21:50:08.144Z,91.22
2023-02-22T21:55:11.168Z,90.60
2023-02-22T22:00:19.285Z,90.78
2023-02-22T22:05:33.970Z,90.51
2023-02-22T22:10:36.825Z,90.27
2023-02-22T22:15:40.296Z,90.09
2023-02-22T22:20:45.086Z,90.13
2023-02-22T22:25:51.425Z,90.24
2023-02-22T22:30:54.325Z,89.69
2023-02-22T22:35:59.948Z,90.08
2023-02-22T22:41:05.983Z,89.64
2023-02-22T22:46:09.362Z,89.53
2023-02-22T22:51:14.983Z,89.42
2023-02-22T22:56:21.571Z,89.48
2023-02-22T23:01:28.206Z,88.93
2023-02-22T23:06:33.412Z,88.65
2023-02-22T23:11:36.545Z,88.67
2023-02-22T23:16:40.337Z,88.66
2023-02-22T23:21:46.582Z,88.94
2023-02-22T23:26:49.394Z,88.29
2023-02-22T23:31:54.832Z,88.99
2023-02-22T23:36:58.204Z,88.05
2023-02-22T23:42:01.190Z,88.57
2023-02-22T23:47:04.483Z,88.62
2023-02-22T23:52:08.888Z,88.40
2023-02-22T23:57:11.721Z,88.15
